Time;durP1;ratioP1;P1;durP2;ratioP2;P2;SDS_P1;SDS_P2;PMS_P1;PMS_P2;Temp;Humidity;BMP_temperature;BMP_pressure;BME280_temperature;BME280_humidity;BME280_pressure;Samples;Min_cycle;Max_cycle;Signal;HPM_P1;HPM_P2
2021/09/23 00:02:23;;;;;;;1.52;1.40;;;;;;;;;;4998117;28;20179;-77
2021/09/23 00:04:49;;;;;;;1.10;1.00;;;;;;;;;;4997446;28;20164;-77
2021/09/23 00:07:15;;;;;;;1.33;1.23;;;;;;;;;;5011394;28;20229;-77
2021/09/23 00:09:41;;;;;;;2.58;1.55;;;;;;;;;;4997171;28;20504;-77
2021/09/23 00:12:07;;;;;;;3.00;1.27;;;;;;;;;;4997932;28;20207;-77
2021/09/23 00:14:33;;;;;;;1.00;0.70;;;;;;;;;;4996676;28;20446;-77
2021/09/23 00:16:59;;;;;;;1.27;1.05;;;;;;;;;;4995084;28;20709;-76
2021/09/23 00:19:25;;;;;;;1.38;0.98;;;;;;;;;;4997051;28;20266;-77
2021/09/23 00:21:51;;;;;;;2.10;1.05;;;;;;;;;;4995675;28;20175;-76
2021/09/23 00:24:17;;;;;;;2.03;1.88;;;;;;;;;;4995213;28;20194;-76
2021/09/23 00:26:43;;;;;;;1.63;1.20;;;;;;;;;;4994651;28;20219;-77
2021/09/23 00:29:09;;;;;;;1.45;1.35;;;;;;;;;;4996957;28;20291;-77
2021/09/23 00:31:35;;;;;;;1.75;1.45;;;;;;;;;;4996391;28;20620;-77
2021/09/23 00:34:02;;;;;;;1.65;1.42;;;;;;;;;;4996666;28;20180;-77
2021/09/23 00:36:30;;;;;;;1.35;1.25;;;;;;;;;;4995067;28;20615;-76
2021/09/23 00:38:56;;;;;;;3.05;2.03;;;;;;;;;;4995475;28;20274;-77
2021/09/23 00:41:22;;;;;;;3.28;1.90;;;;;;;;;;4996381;28;20211;-77
2021/09/23 00:43:48;;;;;;;1.00;0.70;;;;;;;;;;4996475;28;20179;-77
2021/09/23 00:46:14;;;;;;;1.85;1.75;;;;;;;;;;4994299;28;20541;-76
2021/09/23 00:48:41;;;;;;;1.70;1.47;;;;;;;;;;4996191;28;20207;-77
2021/09/23 00:51:07;;;;;;;1.20;0.90;;;;;;;;;;4995607;28;20422;-77
2021/09/23 00:53:33;;;;;;;1.90;1.42;;;;;;;;;;4996566;28;20713;-77
2021/09/23 00:55:59;;;;;;;3.63;2.00;;;;;;;;;;4995218;28;20222;-76
2021/09/23 00:58:25;;;;;;;1.17;1.08;;;;;;;;;;4996288;28;20176;-77
2021/09/23 01:00:51;;;;;;;1.52;1.42;;;;;;;;;;4995743;28;20604;-77
2021/09/23 01:03:17;;;;;;;1.50;1.37;;;;;;;;;;4996096;28;20187;-77
2021/09/23 01:05:43;;;;;;;1.48;1.38;;;;;;;;;;4995100;28;20419;-77
2021/09/23 01:08:10;;;;;;;1.50;1.40;;;;;;;;;;4995653;28;20756;-77
2021/09/23 01:10:36;;;;;;;2.28;1.27;;;;;;;;;;4994650;28;20187;-77
2021/09/23 01:13:02;;;;;;;2.27;2.07;;;;;;;;;;4995658;28;20190;-77
2021/09/23 01:15:28;;;;;;;1.05;0.93;;;;;;;;;;4995478;28;20442;-76
2021/09/23 01:17:54;;;;;;;1.55;1.45;;;;;;;;;;4993589;28;20538;-77
2021/09/23 01:20:21;;;;;;;1.23;1.13;;;;;;;;;;4995059;28;20184;-77
2021/09/23 01:22:47;;;;;;;2.38;1.42;;;;;;;;;;4995227;28;20425;-76
2021/09/23 01:25:14;;;;;;;2.58;1.00;;;;;;;;;;4994536;28;20222;-77
2021/09/23 01:27:40;;;;;;;1.05;0.95;;;;;;;;;;4993587;28;20227;-77
2021/09/23 01:30:06;;;;;;;1.73;1.63;;;;;;;;;;4994417;28;20211;-77
2021/09/23 01:32:32;;;;;;;2.42;2.25;;;;;;;;;;4994191;28;20179;-76
2021/09/23 01:34:58;;;;;;;1.83;1.15;;;;;;;;;;4998398;28;20187;-77
2021/09/23 01:37:25;;;;;;;1.30;1.17;;;;;;;;;;4998216;28;20214;-77
2021/09/23 01:39:51;;;;;;;1.10;0.85;;;;;;;;;;4997385;28;20547;-76
2021/09/23 01:42:17;;;;;;;1.00;0.80;;;;;;;;;;4997029;28;20318;-77
2021/09/23 01:44:43;;;;;;;2.35;1.63;;;;;;;;;;4996511;28;20442;-77
2021/09/23 01:47:09;;;;;;;1.55;1.27;;;;;;;;;;4995873;28;20207;-77
2021/09/23 01:49:35;;;;;;;1.17;1.08;;;;;;;;;;4996504;28;20690;-77
2021/09/23 01:52:01;;;;;;;1.17;1.07;;;;;;;;;;4996812;28;20226;-77
2021/09/23 01:54:27;;;;;;;5.63;2.97;;;;;;;;;;4996427;28;20417;-77
2021/09/23 01:56:54;;;;;;;1.27;1.17;;;;;;;;;;4995840;28;20263;-77
2021/09/23 01:59:21;;;;;;;1.83;1.65;;;;;;;;;;4995741;28;20471;-77
2021/09/23 02:01:47;;;;;;;1.10;0.80;;;;;;;;;;4996006;28;20187;-77
2021/09/23 02:04:13;;;;;;;6.75;2.90;;;;;;;;;;4996945;28;20174;-77
2021/09/23 02:06:39;;;;;;;1.23;1.13;;;;;;;;;;4995693;28;20273;-77
2021/09/23 02:09:04;;;;;;;1.83;1.27;;;;;;;;;;4995608;28;20458;-77
2021/09/23 02:11:30;;;;;;;1.87;1.23;;;;;;;;;;4996875;28;20414;-77
2021/09/23 02:13:56;;;;;;;1.10;0.73;;;;;;;;;;4995894;28;20505;-76
2021/09/23 02:16:22;;;;;;;1.00;0.80;;;;;;;;;;5010602;28;20442;-77
2021/09/23 02:18:48;;;;;;;2.50;1.03;;;;;;;;;;4994841;28;20446;-77
2021/09/23 02:21:14;;;;;;;1.10;0.80;;;;;;;;;;4996385;28;20409;-76
2021/09/23 02:23:41;;;;;;;1.65;1.20;;;;;;;;;;4995109;28;20862;-77
2021/09/23 02:26:07;;;;;;;2.00;1.45;;;;;;;;;;4995682;28;20278;-77
2021/09/23 02:28:35;;;;;;;2.42;1.10;;;;;;;;;;4996189;28;20769;-77
2021/09/23 02:31:01;;;;;;;1.00;0.70;;;;;;;;;;4996745;28;20175;-77
2021/09/23 02:33:27;;;;;;;3.00;1.13;;;;;;;;;;4996294;28;20176;-77
2021/09/23 02:35:53;;;;;;;1.40;0.95;;;;;;;;;;4995860;28;20418;-77
2021/09/23 02:38:19;;;;;;;1.10;0.82;;;;;;;;;;4995170;28;20207;-76
2021/09/23 02:40:46;;;;;;;1.00;0.70;;;;;;;;;;4978319;28;20193;-77
2021/09/23 02:43:12;;;;;;;1.20;1.10;;;;;;;;;;4977338;28;20177;-77
2021/09/23 02:45:38;;;;;;;1.90;1.67;;;;;;;;;;4990567;28;20184;-76
2021/09/23 02:48:04;;;;;;;1.65;1.35;;;;;;;;;;4995075;28;20214;-77
2021/09/23 02:50:31;;;;;;;2.28;1.95;;;;;;;;;;4998773;28;20258;-77
2021/09/23 02:52:57;;;;;;;1.20;1.10;;;;;;;;;;4999652;28;20173;-77
2021/09/23 02:55:23;;;;;;;1.50;1.03;;;;;;;;;;5000559;28;20199;-77
2021/09/23 02:57:49;;;;;;;1.17;1.07;;;;;;;;;;4999384;28;20442;-77
2021/09/23 03:00:15;;;;;;;1.53;1.43;;;;;;;;;;4999752;28;20785;-77
2021/09/23 03:02:41;;;;;;;4.82;1.15;;;;;;;;;;4999443;28;20472;-77
2021/09/23 03:05:07;;;;;;;1.60;1.20;;;;;;;;;;4999882;28;20199;-77
2021/09/23 03:07:33;;;;;;;1.95;1.75;;;;;;;;;;5037475;23;20519;-74
2021/09/23 03:09:59;;;;;;;1.13;1.02;;;;;;;;;;5029028;28;20309;-74
2021/09/23 03:12:25;;;;;;;1.10;0.93;;;;;;;;;;5013674;28;20528;-74
2021/09/23 03:14:51;;;;;;;1.10;0.90;;;;;;;;;;5014456;28;20422;-74
2021/09/23 03:17:17;;;;;;;1.50;1.00;;;;;;;;;;5013835;28;20441;-73
2021/09/23 03:19:43;;;;;;;2.60;2.05;;;;;;;;;;5013079;28;20426;-73
2021/09/23 03:22:10;;;;;;;1.27;0.75;;;;;;;;;;5014191;28;20190;-75
2021/09/23 03:24:36;;;;;;;2.47;1.65;;;;;;;;;;5014518;28;20177;-75
2021/09/23 03:27:02;;;;;;;1.20;1.10;;;;;;;;;;5013673;28;20210;-75
2021/09/23 03:29:28;;;;;;;1.95;1.85;;;;;;;;;;5014503;28;20736;-75
2021/09/23 03:31:54;;;;;;;1.40;1.30;;;;;;;;;;5014469;28;20214;-75
2021/09/23 03:34:20;;;;;;;5.90;2.40;;;;;;;;;;5013717;28;20847;-75
2021/09/23 03:36:46;;;;;;;1.90;1.33;;;;;;;;;;5013723;28;20476;-75
2021/09/23 03:39:13;;;;;;;1.02;0.93;;;;;;;;;;5021683;28;20209;-75
2021/09/23 03:41:39;;;;;;;1.23;0.80;;;;;;;;;;5014281;28;20203;-74
2021/09/23 03:44:05;;;;;;;1.90;1.60;;;;;;;;;;5014181;28;20179;-74
2021/09/23 03:46:33;;;;;;;1.25;1.15;;;;;;;;;;5013145;28;20187;-75
2021/09/23 03:48:59;;;;;;;1.25;1.15;;;;;;;;;;5013606;28;20708;-75
2021/09/23 03:51:25;;;;;;;1.10;1.00;;;;;;;;;;5013909;28;20179;-75
2021/09/23 03:53:51;;;;;;;2.00;1.20;;;;;;;;;;5013547;28;20425;-74
2021/09/23 03:56:17;;;;;;;3.43;1.20;;;;;;;;;;5013068;28;20418;-75
2021/09/23 03:58:43;;;;;;;1.00;0.80;;;;;;;;;;5013911;28;20492;-75
2021/09/23 04:01:09;;;;;;;2.33;1.05;;;;;;;;;;5012436;28;20429;-75
2021/09/23 04:03:36;;;;;;;2.70;2.50;;;;;;;;;;5013118;28;20309;-74
2021/09/23 04:06:02;;;;;;;1.63;1.23;;;;;;;;;;5011941;28;20175;-75
2021/09/23 04:08:28;;;;;;;1.77;1.67;;;;;;;;;;5020909;28;20217;-74
2021/09/23 04:10:54;;;;;;;2.00;1.90;;;;;;;;;;5031815;28;20417;-74
2021/09/23 04:13:20;;;;;;;1.00;0.83;;;;;;;;;;5020819;28;20497;-75
2021/09/23 04:15:48;;;;;;;3.83;3.55;;;;;;;;;;5012802;28;21005;-74
2021/09/23 04:18:17;;;;;;;1.00;0.80;;;;;;;;;;5007877;28;20208;-74
2021/09/23 04:20:44;;;;;;;1.00;0.70;;;;;;;;;;4993853;28;20183;-74
2021/09/23 04:23:10;;;;;;;2.00;0.85;;;;;;;;;;5000363;28;20225;-74
2021/09/23 04:25:36;;;;;;;8.20;1.40;;;;;;;;;;5012261;28;20206;-74
2021/09/23 04:28:02;;;;;;;1.88;1.30;;;;;;;;;;5011443;28;20984;-74
2021/09/23 04:30:28;;;;;;;2.00;1.67;;;;;;;;;;5013128;28;20183;-74
2021/09/23 04:32:54;;;;;;;1.43;1.33;;;;;;;;;;5013144;28;20179;-73
2021/09/23 04:35:20;;;;;;;1.93;1.73;;;;;;;;;;5012754;28;20422;-74
2021/09/23 04:37:46;;;;;;;1.20;0.90;;;;;;;;;;5011612;28;20442;-74
2021/09/23 04:40:12;;;;;;;3.20;1.50;;;;;;;;;;5020523;28;20951;-74
2021/09/23 04:42:41;;;;;;;2.35;2.15;;;;;;;;;;5013055;28;20480;-74
2021/09/23 04:45:08;;;;;;;1.00;0.77;;;;;;;;;;5012922;28;20262;-74
2021/09/23 04:47:34;;;;;;;1.10;1.00;;;;;;;;;;5012035;28;20217;-74
2021/09/23 04:49:59;;;;;;;1.30;1.00;;;;;;;;;;5012646;28;20210;-75
2021/09/23 04:52:25;;;;;;;2.27;1.73;;;;;;;;;;5010962;28;20468;-74
2021/09/23 04:54:51;;;;;;;1.20;1.07;;;;;;;;;;5012634;28;20422;-74
2021/09/23 04:57:17;;;;;;;1.10;1.00;;;;;;;;;;5012012;28;20441;-75
2021/09/23 04:59:43;;;;;;;1.20;0.90;;;;;;;;;;5011745;28;20441;-75
2021/09/23 05:02:09;;;;;;;2.60;1.63;;;;;;;;;;5012417;28;20882;-75
2021/09/23 05:04:35;;;;;;;2.67;1.67;;;;;;;;;;5012842;28;20967;-74
2021/09/23 05:07:01;;;;;;;3.15;1.83;;;;;;;;;;5014114;28;20212;-75
2021/09/23 05:09:30;;;;;;;2.55;1.80;;;;;;;;;;5013967;28;20246;-74
2021/09/23 05:11:56;;;;;;;1.58;1.48;;;;;;;;;;5014081;28;20175;-75
2021/09/23 05:14:22;;;;;;;1.43;1.20;;;;;;;;;;5012813;28;20177;-74
2021/09/23 05:16:48;;;;;;;1.73;1.63;;;;;;;;;;5011699;28;20429;-74
2021/09/23 05:19:14;;;;;;;1.20;1.07;;;;;;;;;;5012260;28;20422;-75
2021/09/23 05:21:41;;;;;;;2.85;1.20;;;;;;;;;;5012441;28;20450;-75
2021/09/23 05:24:09;;;;;;;1.10;0.95;;;;;;;;;;5012486;28;20179;-75
2021/09/23 05:26:35;;;;;;;1.20;1.00;;;;;;;;;;5011763;28;20175;-74
2021/09/23 05:29:01;;;;;;;1.40;1.13;;;;;;;;;;5012318;28;20201;-74
2021/09/23 05:31:27;;;;;;;1.10;0.87;;;;;;;;;;5012457;28;20512;-75
2021/09/23 05:33:54;;;;;;;1.00;0.63;;;;;;;;;;5012431;28;20413;-74
2021/09/23 05:36:20;;;;;;;1.00;0.70;;;;;;;;;;5010537;28;20429;-74
2021/09/23 05:38:46;;;;;;;1.43;1.33;;;;;;;;;;5020214;28;20216;-74
2021/09/23 05:41:12;;;;;;;1.52;1.02;;;;;;;;;;5012374;28;20406;-75
2021/09/23 05:43:39;;;;;;;2.63;2.07;;;;;;;;;;5012341;28;20171;-74
2021/09/23 05:46:05;;;;;;;1.52;1.42;;;;;;;;;;5011425;28;20440;-75
2021/09/23 05:48:31;;;;;;;1.00;0.70;;;;;;;;;;5012276;28;20277;-74
2021/09/23 05:50:57;;;;;;;1.20;0.90;;;;;;;;;;5012313;28;20670;-74
2021/09/23 05:53:23;;;;;;;1.48;1.38;;;;;;;;;;5011711;28;20414;-75
2021/09/23 05:55:49;;;;;;;1.00;0.80;;;;;;;;;;5011596;28;20646;-75
2021/09/23 05:58:15;;;;;;;1.23;1.13;;;;;;;;;;5011998;28;20203;-75
2021/09/23 06:00:41;;;;;;;1.25;1.15;;;;;;;;;;5011918;28;20186;-74
2021/09/23 06:03:07;;;;;;;1.00;0.80;;;;;;;;;;5011166;28;20250;-74
2021/09/23 06:05:33;;;;;;;2.13;1.37;;;;;;;;;;5012000;28;20418;-75
2021/09/23 06:07:59;;;;;;;1.23;1.13;;;;;;;;;;5018735;28;20456;-74
2021/09/23 06:10:25;;;;;;;1.10;0.90;;;;;;;;;;5026097;28;20421;-75
2021/09/23 06:12:51;;;;;;;1.43;1.10;;;;;;;;;;5031792;28;20193;-74
2021/09/23 06:15:17;;;;;;;3.33;3.03;;;;;;;;;;5031572;28;20412;-74
2021/09/23 06:17:44;;;;;;;1.00;0.60;;;;;;;;;;5030873;28;20435;-74
2021/09/23 06:20:10;;;;;;;1.00;0.70;;;;;;;;;;5011825;28;20448;-74
2021/09/23 06:22:36;;;;;;;1.40;1.30;;;;;;;;;;5010652;28;20270;-74
2021/09/23 06:25:03;;;;;;;1.08;0.98;;;;;;;;;;5012588;28;20198;-74
2021/09/23 06:27:29;;;;;;;1.20;0.90;;;;;;;;;;5014286;28;20261;-74
2021/09/23 06:29:55;;;;;;;3.87;2.53;;;;;;;;;;5013385;28;20685;-74
2021/09/23 06:32:20;;;;;;;1.00;0.70;;;;;;;;;;5013992;28;20429;-74
2021/09/23 06:34:47;;;;;;;1.00;0.70;;;;;;;;;;5015658;28;20434;-75
2021/09/23 06:37:13;;;;;;;1.00;0.82;;;;;;;;;;5018782;28;20433;-74
2021/09/23 06:39:40;;;;;;;1.20;1.02;;;;;;;;;;5027060;28;20240;-74
2021/09/23 06:42:06;;;;;;;3.90;2.33;;;;;;;;;;5031560;28;20193;-74
2021/09/23 06:44:32;;;;;;;1.10;0.80;;;;;;;;;;5013129;28;20207;-75
2021/09/23 06:46:58;;;;;;;1.60;1.50;;;;;;;;;;4996869;28;20234;-74
2021/09/23 06:49:25;;;;;;;1.77;1.10;;;;;;;;;;5011842;28;20249;-74
2021/09/23 06:51:51;;;;;;;1.48;1.38;;;;;;;;;;5015241;28;20417;-75
2021/09/23 06:54:17;;;;;;;1.00;0.70;;;;;;;;;;5014994;28;20257;-75
2021/09/23 06:56:43;;;;;;;1.20;1.02;;;;;;;;;;5014276;28;20497;-74
2021/09/23 06:59:09;;;;;;;1.10;0.93;;;;;;;;;;5014840;28;20263;-73
2021/09/23 07:01:37;;;;;;;1.77;0.83;;;;;;;;;;5015090;28;20413;-74
2021/09/23 07:04:03;;;;;;;1.70;1.60;;;;;;;;;;5014856;28;20416;-74
2021/09/23 07:06:29;;;;;;;2.47;1.30;;;;;;;;;;5014224;28;20209;-73
2021/09/23 07:08:55;;;;;;;1.00;0.80;;;;;;;;;;5024436;28;20217;-74
2021/09/23 07:11:21;;;;;;;1.47;1.07;;;;;;;;;;5023981;28;20183;-74
2021/09/23 07:13:47;;;;;;;1.20;1.07;;;;;;;;;;5013810;28;20445;-74
2021/09/23 07:16:13;;;;;;;1.00;0.83;;;;;;;;;;5012091;28;20448;-74
2021/09/23 07:18:39;;;;;;;1.00;0.70;;;;;;;;;;5014811;28;20959;-74
2021/09/23 07:21:07;;;;;;;1.05;0.95;;;;;;;;;;5014668;28;20414;-73
2021/09/23 07:23:34;;;;;;;1.75;1.08;;;;;;;;;;5014459;28;20225;-73
2021/09/23 07:26:00;;;;;;;1.40;1.05;;;;;;;;;;5013532;28;20194;-74
2021/09/23 07:28:26;;;;;;;2.60;1.40;;;;;;;;;;5014131;28;20211;-73
2021/09/23 07:30:52;;;;;;;1.25;1.02;;;;;;;;;;5014444;28;20182;-74
2021/09/23 07:33:19;;;;;;;1.98;1.65;;;;;;;;;;5014443;28;20179;-73
2021/09/23 07:35:45;;;;;;;1.63;1.52;;;;;;;;;;5013937;28;20187;-74
2021/09/23 07:38:11;;;;;;;1.65;1.25;;;;;;;;;;5020760;28;20211;-74
2021/09/23 07:40:37;;;;;;;2.30;2.13;;;;;;;;;;5017613;28;20178;-76
2021/09/23 07:43:03;;;;;;;1.00;0.60;;;;;;;;;;5012162;28;20434;-75
2021/09/23 07:45:29;;;;;;;1.50;1.30;;;;;;;;;;5014296;28;20683;-74
2021/09/23 07:47:55;;;;;;;1.42;0.75;;;;;;;;;;5013688;28;20199;-75
2021/09/23 07:50:21;;;;;;;1.30;0.80;;;;;;;;;;5014486;28;20180;-75
2021/09/23 07:52:47;;;;;;;1.48;1.38;;;;;;;;;;5014000;28;20278;-75
2021/09/23 07:55:13;;;;;;;1.10;0.90;;;;;;;;;;5014100;28;20237;-75
2021/09/23 07:57:39;;;;;;;12.73;1.43;;;;;;;;;;5013283;28;20446;-74
2021/09/23 08:00:06;;;;;;;2.50;1.70;;;;;;;;;;5014328;28;20881;-74
2021/09/23 08:02:32;;;;;;;2.10;1.27;;;;;;;;;;5014095;28;20177;-75
2021/09/23 08:04:58;;;;;;;1.30;0.80;;;;;;;;;;5014249;28;20556;-75
2021/09/23 08:07:24;;;;;;;1.00;0.80;;;;;;;;;;5012102;28;20462;-75
2021/09/23 08:09:50;;;;;;;1.10;0.80;;;;;;;;;;5015098;28;20499;-75
2021/09/23 08:12:16;;;;;;;1.75;1.48;;;;;;;;;;5013598;28;20416;-75
2021/09/23 08:14:42;;;;;;;1.60;1.50;;;;;;;;;;5013579;28;20251;-74
2021/09/23 08:17:08;;;;;;;4.28;1.73;;;;;;;;;;4996473;28;20234;-74
2021/09/23 08:19:35;;;;;;;1.30;0.90;;;;;;;;;;4994402;28;20276;-73
2021/09/23 08:22:02;;;;;;;1.15;1.05;;;;;;;;;;5000649;28;20180;-74
2021/09/23 08:24:28;;;;;;;1.00;0.80;;;;;;;;;;5013370;28;20623;-73
2021/09/23 08:26:54;;;;;;;1.57;1.47;;;;;;;;;;5012593;28;20247;-74
2021/09/23 08:29:19;;;;;;;1.53;0.87;;;;;;;;;;5013445;28;20476;-74
2021/09/23 08:31:46;;;;;;;1.50;1.00;;;;;;;;;;5013450;28;20402;-74
2021/09/23 08:34:12;;;;;;;1.00;0.70;;;;;;;;;;5006036;28;20428;-75
2021/09/23 08:36:38;;;;;;;0.90;0.60;;;;;;;;;;5011859;28;20216;-74
2021/09/23 08:39:04;;;;;;;1.37;1.27;;;;;;;;;;5024109;28;20407;-74
2021/09/23 08:41:30;;;;;;;0.90;0.70;;;;;;;;;;5032882;28;20407;-75
2021/09/23 08:43:56;;;;;;;1.47;1.00;;;;;;;;;;5020728;28;20943;-74
2021/09/23 08:46:22;;;;;;;1.93;1.83;;;;;;;;;;5010316;28;20384;-75
2021/09/23 08:48:52;;;;;;;0.90;0.70;;;;;;;;;;5010340;28;20494;-74
2021/09/23 08:51:19;;;;;;;0.90;0.70;;;;;;;;;;5013146;28;20419;-74
2021/09/23 08:53:45;;;;;;;2.00;1.37;;;;;;;;;;5012529;28;20970;-74
2021/09/23 08:56:12;;;;;;;1.10;0.90;;;;;;;;;;5012350;28;20500;-74
2021/09/23 08:58:39;;;;;;;1.20;1.10;;;;;;;;;;5013115;28;20853;-74
2021/09/23 09:01:05;;;;;;;2.20;0.93;;;;;;;;;;5012825;28;20401;-74
2021/09/23 09:03:34;;;;;;;1.10;0.80;;;;;;;;;;5012949;28;20470;-74
2021/09/23 09:06:03;;;;;;;1.70;1.20;;;;;;;;;;5012245;28;20483;-74
2021/09/23 09:08:31;;;;;;;0.90;0.60;;;;;;;;;;5019666;28;20477;-75
2021/09/23 09:10:59;;;;;;;2.70;1.10;;;;;;;;;;5030175;28;20426;-74
2021/09/23 09:13:32;;;;;;;0.90;0.67;;;;;;;;;;5008606;28;20411;-74
2021/09/23 09:16:03;;;;;;;1.63;0.87;;;;;;;;;;5007973;28;20404;-74
2021/09/23 09:18:29;;;;;;;1.63;1.23;;;;;;;;;;5008735;28;20419;-75
2021/09/23 09:20:55;;;;;;;1.50;1.40;;;;;;;;;;4992950;28;20432;-75
2021/09/23 09:23:21;;;;;;;1.27;1.17;;;;;;;;;;4992555;28;20424;-74
2021/09/23 09:25:47;;;;;;;1.00;0.80;;;;;;;;;;4992336;28;20418;-75
2021/09/23 09:28:16;;;;;;;1.67;1.57;;;;;;;;;;4992560;28;20481;-75
2021/09/23 09:30:43;;;;;;;1.93;0.87;;;;;;;;;;5007626;28;20437;-74
2021/09/23 09:33:09;;;;;;;0.90;0.67;;;;;;;;;;5012448;28;20418;-74
2021/09/23 09:35:35;;;;;;;1.00;0.87;;;;;;;;;;5012312;28;20562;-74
2021/09/23 09:38:02;;;;;;;1.13;0.80;;;;;;;;;;5019263;28;20915;-74
2021/09/23 09:40:32;;;;;;;1.47;0.80;;;;;;;;;;5026890;28;20401;-74
2021/09/23 09:43:00;;;;;;;1.50;1.10;;;;;;;;;;5018841;28;20827;-74
2021/09/23 09:45:27;;;;;;;0.90;0.60;;;;;;;;;;5011944;28;20392;-74
2021/09/23 09:47:54;;;;;;;0.90;0.60;;;;;;;;;;5011431;28;20411;-74
2021/09/23 09:50:31;;;;;;;1.10;0.80;;;;;;;;;;5012111;28;20899;-75
2021/09/23 09:53:02;;;;;;;1.37;0.60;;;;;;;;;;5011390;28;20471;-75
2021/09/23 09:55:35;;;;;;;1.00;0.70;;;;;;;;;;4996648;28;20422;-74
2021/09/23 09:58:01;;;;;;;1.67;0.90;;;;;;;;;;5010904;28;20442;-74
2021/09/23 10:00:28;;;;;;;1.00;0.80;;;;;;;;;;5011907;28;20802;-74
2021/09/23 10:02:54;;;;;;;0.90;0.60;;;;;;;;;;5014170;28;20906;-73
2021/09/23 10:05:21;;;;;;;2.70;1.00;;;;;;;;;;5016031;28;20872;-74
2021/09/23 10:07:49;;;;;;;1.07;0.83;;;;;;;;;;5022953;28;20916;-74
2021/09/23 10:10:16;;;;;;;2.20;1.27;;;;;;;;;;5028720;28;20467;-73
2021/09/23 10:12:43;;;;;;;1.30;0.90;;;;;;;;;;5023285;28;20781;-73
2021/09/23 10:15:10;;;;;;;1.37;0.90;;;;;;;;;;5015818;28;20424;-75
2021/09/23 10:17:36;;;;;;;0.90;0.50;;;;;;;;;;5015226;28;20408;-74
2021/09/23 10:20:04;;;;;;;2.50;1.17;;;;;;;;;;5015858;28;20417;-74
2021/09/23 10:22:30;;;;;;;1.10;0.70;;;;;;;;;;5014135;28;20432;-74
2021/09/23 10:24:56;;;;;;;1.10;0.83;;;;;;;;;;5014034;28;20400;-74
2021/09/23 10:28:08;;;;;;;1.00;0.83;;;;;;;;;;5015047;28;20921;-74
2021/09/23 10:30:09;;;;;;;2.03;1.27;;;;;;;;;;5006384;28;20951;-73
2021/09/23 10:32:36;;;;;;;1.00;0.90;;;;;;;;;;5015743;28;20417;-74
2021/09/23 10:35:02;;;;;;;1.57;1.37;;;;;;;;;;5015554;28;20404;-74
2021/09/23 10:37:28;;;;;;;1.30;0.93;;;;;;;;;;5021151;28;20410;-73
2021/09/23 10:39:54;;;;;;;0.90;0.60;;;;;;;;;;5026704;28;20413;-73
2021/09/23 10:42:21;;;;;;;1.10;0.73;;;;;;;;;;5017671;28;20815;-74
2021/09/23 10:44:51;;;;;;;1.37;0.80;;;;;;;;;;5015399;28;20475;-74
2021/09/23 10:47:28;;;;;;;1.00;0.90;;;;;;;;;;5011314;28;20490;-73
2021/09/23 10:49:55;;;;;;;1.60;0.70;;;;;;;;;;5013440;28;20471;-74
2021/09/23 10:52:25;;;;;;;1.10;0.93;;;;;;;;;;5014247;28;20978;-75
2021/09/23 10:54:54;;;;;;;0.90;0.70;;;;;;;;;;5014683;28;20509;-74
2021/09/23 10:57:21;;;;;;;1.77;1.00;;;;;;;;;;5010987;28;20449;-75
2021/09/23 10:59:50;;;;;;;1.53;1.43;;;;;;;;;;5011289;28;20497;-76
2021/09/23 11:02:26;;;;;;;1.10;0.70;;;;;;;;;;5011013;28;20441;-75
2021/09/23 11:04:53;;;;;;;0.90;0.60;;;;;;;;;;5013925;28;20446;-75
2021/09/23 11:07:20;;;;;;;0.90;0.77;;;;;;;;;;5011563;28;20473;-76
2021/09/23 11:10:04;;;;;;;1.00;0.87;;;;;;;;;;5021232;28;20470;-75
2021/09/23 11:12:31;;;;;;;1.57;0.80;;;;;;;;;;5012542;28;20497;-75
2021/09/23 11:14:58;;;;;;;1.20;1.10;;;;;;;;;;5014691;28;20393;-75
2021/09/23 11:17:25;;;;;;;0.90;0.60;;;;;;;;;;5011394;28;20530;-75
2021/09/23 11:20:02;;;;;;;0.80;0.60;;;;;;;;;;4999621;28;20452;-75
2021/09/23 11:22:36;;;;;;;0.90;0.80;;;;;;;;;;4993490;28;20420;-77
2021/09/23 11:25:03;;;;;;;1.10;0.70;;;;;;;;;;5002840;28;20513;-73
2021/09/23 11:27:29;;;;;;;0.83;0.57;;;;;;;;;;5010043;28;20455;-73
2021/09/23 11:29:55;;;;;;;1.93;0.83;;;;;;;;;;5011435;28;21005;-73
2021/09/23 11:32:22;;;;;;;0.80;0.60;;;;;;;;;;5013905;28;20482;-74
2021/09/23 11:34:55;;;;;;;1.60;0.87;;;;;;;;;;5012765;28;20489;-73
2021/09/23 11:37:27;;;;;;;1.00;0.70;;;;;;;;;;5013474;28;20820;-73
2021/09/23 11:39:57;;;;;;;1.30;1.20;;;;;;;;;;5018819;28;20424;-73
2021/09/23 11:42:24;;;;;;;0.80;0.80;;;;;;;;;;5012604;28;20435;-73
2021/09/23 11:44:50;;;;;;;0.80;0.60;;;;;;;;;;5011674;28;20439;-73
2021/09/23 11:47:16;;;;;;;0.80;0.60;;;;;;;;;;5011109;28;20477;-73
2021/09/23 11:49:43;;;;;;;0.97;0.70;;;;;;;;;;5013269;28;20520;-74
2021/09/23 11:52:09;;;;;;;0.90;0.70;;;;;;;;;;5013172;28;20503;-74
2021/09/23 11:54:35;;;;;;;0.80;0.60;;;;;;;;;;5012978;28;20432;-74
2021/09/23 11:57:03;;;;;;;0.90;0.80;;;;;;;;;;5011863;28;20981;-73
2021/09/23 11:59:29;;;;;;;0.80;0.60;;;;;;;;;;5012327;28;20986;-73
2021/09/23 12:02:02;;;;;;;1.03;0.60;;;;;;;;;;5011521;28;20526;-73
2021/09/23 12:04:31;;;;;;;0.90;0.90;;;;;;;;;;5012190;28;20445;-73
2021/09/23 12:07:04;;;;;;;0.80;0.60;;;;;;;;;;5010561;28;20455;-73
2021/09/23 12:09:30;;;;;;;0.87;0.77;;;;;;;;;;5018314;28;20565;-73
2021/09/23 12:11:56;;;;;;;0.90;0.70;;;;;;;;;;5011784;28;20781;-73
2021/09/23 12:14:22;;;;;;;1.10;0.90;;;;;;;;;;5013713;28;20465;-73
2021/09/23 12:16:48;;;;;;;0.80;0.70;;;;;;;;;;5012611;28;20478;-73
2021/09/23 12:19:18;;;;;;;2.10;0.90;;;;;;;;;;5013747;28;20502;-74
2021/09/23 12:21:53;;;;;;;0.70;0.50;;;;;;;;;;5012907;28;20423;-74
2021/09/23 12:24:30;;;;;;;1.20;0.80;;;;;;;;;;5012992;28;20433;-74
2021/09/23 12:26:56;;;;;;;0.80;0.70;;;;;;;;;;5012826;28;20454;-74
2021/09/23 12:29:24;;;;;;;0.80;0.70;;;;;;;;;;5013443;28;20971;-73
2021/09/23 12:32:06;;;;;;;1.37;1.00;;;;;;;;;;5010109;28;20439;-73
2021/09/23 12:34:40;;;;;;;1.10;1.00;;;;;;;;;;5013296;28;20420;-73
2021/09/23 12:37:07;;;;;;;1.20;0.93;;;;;;;;;;5014562;28;20432;-74
2021/09/23 12:39:42;;;;;;;1.00;0.70;;;;;;;;;;5024788;28;20420;-73
2021/09/23 12:42:12;;;;;;;1.00;0.87;;;;;;;;;;5013170;28;20897;-73
2021/09/23 12:44:40;;;;;;;0.90;0.80;;;;;;;;;;5012176;28;20439;-73
2021/09/23 12:47:12;;;;;;;0.80;0.70;;;;;;;;;;5012001;28;20813;-74
2021/09/23 12:49:39;;;;;;;0.83;0.70;;;;;;;;;;5013055;28;20470;-73
2021/09/23 12:52:12;;;;;;;0.80;0.80;;;;;;;;;;5013257;28;20499;-73
2021/09/23 12:54:46;;;;;;;0.80;0.60;;;;;;;;;;5012733;28;20419;-74
2021/09/23 12:57:16;;;;;;;1.37;1.27;;;;;;;;;;5012240;28;20423;-73
2021/09/23 12:59:42;;;;;;;0.70;0.60;;;;;;;;;;5012305;28;20432;-74
2021/09/23 13:02:15;;;;;;;1.37;1.17;;;;;;;;;;5010832;28;20451;-74
2021/09/23 13:04:41;;;;;;;0.80;0.70;;;;;;;;;;5012866;28;20420;-73
2021/09/23 13:07:15;;;;;;;0.80;0.70;;;;;;;;;;5015529;28;20993;-73
2021/09/23 13:09:58;;;;;;;0.80;0.63;;;;;;;;;;5023868;28;20428;-73
2021/09/23 13:12:31;;;;;;;1.10;1.00;;;;;;;;;;5020880;28;20427;-73
2021/09/23 13:14:57;;;;;;;0.70;0.50;;;;;;;;;;5012510;28;20908;-74
2021/09/23 13:17:27;;;;;;;0.77;0.60;;;;;;;;;;5011848;28;20470;-75
2021/09/23 13:19:53;;;;;;;2.00;0.87;;;;;;;;;;5012596;28;20479;-74
2021/09/23 13:22:19;;;;;;;0.70;0.60;;;;;;;;;;5012498;28;20432;-75
2021/09/23 13:24:45;;;;;;;1.17;0.80;;;;;;;;;;5010556;28;20405;-75
2021/09/23 13:27:11;;;;;;;0.90;0.73;;;;;;;;;;5008130;28;20498;-74
2021/09/23 13:29:36;;;;;;;0.90;0.80;;;;;;;;;;5012028;28;20449;-75
2021/09/23 13:32:02;;;;;;;1.63;1.53;;;;;;;;;;5006984;28;20462;-74
2021/09/23 13:34:28;;;;;;;0.80;0.80;;;;;;;;;;5012242;28;20423;-74
2021/09/23 13:36:54;;;;;;;0.70;0.50;;;;;;;;;;5013249;28;20456;-74
2021/09/23 13:39:20;;;;;;;1.03;1.00;;;;;;;;;;5023233;28;20562;-74
2021/09/23 13:41:46;;;;;;;0.70;0.60;;;;;;;;;;5032126;28;20443;-74
2021/09/23 13:44:12;;;;;;;1.60;1.50;;;;;;;;;;5020972;28;20419;-74
2021/09/23 13:46:38;;;;;;;0.70;0.60;;;;;;;;;;5011479;28;20766;-74
2021/09/23 13:49:04;;;;;;;2.20;1.20;;;;;;;;;;5012008;28;20421;-75
2021/09/23 13:51:30;;;;;;;2.10;0.83;;;;;;;;;;5011999;28;20912;-74
2021/09/23 13:53:56;;;;;;;0.80;0.80;;;;;;;;;;5011782;28;20411;-74
2021/09/23 13:56:23;;;;;;;0.80;0.80;;;;;;;;;;5010716;28;20418;-74
2021/09/23 13:58:49;;;;;;;1.53;0.80;;;;;;;;;;5011813;28;20467;-74
2021/09/23 14:01:15;;;;;;;0.80;0.70;;;;;;;;;;5011106;28;20427;-73
2021/09/23 14:03:41;;;;;;;0.80;0.70;;;;;;;;;;5010547;28;20814;-74
2021/09/23 14:06:07;;;;;;;0.80;0.70;;;;;;;;;;5011187;28;20447;-73
2021/09/23 14:08:33;;;;;;;0.93;0.90;;;;;;;;;;5019797;28;20539;-74
2021/09/23 14:10:59;;;;;;;1.57;1.47;;;;;;;;;;5030505;28;20426;-74
2021/09/23 14:13:26;;;;;;;0.80;0.80;;;;;;;;;;5031578;28;20821;-75
2021/09/23 14:15:52;;;;;;;5.40;1.30;;;;;;;;;;5017888;28;20432;-76
2021/09/23 14:18:18;;;;;;;1.67;1.53;;;;;;;;;;5010121;28;20496;-77
2021/09/23 14:20:44;;;;;;;2.30;1.00;;;;;;;;;;5011866;28;20900;-75
2021/09/23 14:23:11;;;;;;;1.30;0.73;;;;;;;;;;5011764;28;20412;-75
2021/09/23 14:25:37;;;;;;;1.00;0.77;;;;;;;;;;5011584;28;20416;-76
2021/09/23 14:28:04;;;;;;;0.77;0.73;;;;;;;;;;5010703;28;20432;-76
2021/09/23 14:30:30;;;;;;;0.80;0.70;;;;;;;;;;4996354;28;20477;-75
2021/09/23 14:32:56;;;;;;;0.87;0.70;;;;;;;;;;5011868;28;20820;-75
2021/09/23 14:35:22;;;;;;;3.27;0.87;;;;;;;;;;5009867;28;20414;-75
2021/09/23 14:37:48;;;;;;;0.90;0.90;;;;;;;;;;5019001;28;20486;-74
2021/09/23 14:40:14;;;;;;;0.80;0.77;;;;;;;;;;5024068;28;20574;-74
2021/09/23 14:42:40;;;;;;;1.07;0.60;;;;;;;;;;5022733;28;20422;-74